Time;durP1;ratioP1;P1;durP2;ratioP2;P2;SDS_P1;SDS_P2;PMS_P1;PMS_P2;Temp;Humidity;BMP_temperature;BMP_pressure;BME280_temperature;BME280_humidity;BME280_pressure;Samples;Min_cycle;Max_cycle;Signal;HPM_P1;HPM_P2
2023/03/04 00:02:05;;;;;;;19.97;4.80;;;;;;;5.63;80.00;102564.22;5255626;28;20545;-72
2023/03/04 00:04:37;;;;;;;12.27;3.30;;;;;;;5.80;78.92;102564.00;5262730;28;20040;-71
2023/03/04 00:07:08;;;;;;;20.63;4.17;;;;;;;5.84;78.43;102556.16;5245766;28;20582;-71
2023/03/04 00:09:39;;;;;;;20.43;4.77;;;;;;;5.55;81.42;102555.66;5260532;28;20028;-71
2023/03/04 00:12:11;;;;;;;24.07;6.03;;;;;;;5.56;80.81;102558.22;5257125;28;20017;-72
2023/03/04 00:14:43;;;;;;;20.70;5.27;;;;;;;5.80;80.50;102566.63;5274657;28;20036;-72
2023/03/04 00:17:14;;;;;;;16.37;4.53;;;;;;;5.86;79.11;102559.63;5273610;28;20039;-72
2023/03/04 00:19:46;;;;;;;21.10;4.57;;;;;;;5.78;80.22;102562.28;5258542;28;20063;-72
2023/03/04 00:22:17;;;;;;;16.80;4.67;;;;;;;5.90;79.08;102562.16;5253320;28;20575;-72
2023/03/04 00:24:48;;;;;;;21.30;4.57;;;;;;;6.00;78.75;102555.13;5256749;28;20094;-72
2023/03/04 00:27:20;;;;;;;26.57;5.47;;;;;;;5.67;80.74;102546.84;5256457;28;20124;-72
2023/03/04 00:29:51;;;;;;;22.40;4.13;;;;;;;5.93;79.12;102540.47;5258426;28;20037;-72
2023/03/04 00:32:22;;;;;;;17.73;3.07;;;;;;;5.91;78.80;102547.41;5264868;28;20025;-72
2023/03/04 00:34:53;;;;;;;16.00;4.37;;;;;;;5.80;79.95;102534.53;5259846;28;20460;-72
2023/03/04 00:37:26;;;;;;;17.63;4.43;;;;;;;5.76;80.15;102541.50;5256489;28;20052;-72
2023/03/04 00:39:57;;;;;;;15.37;3.53;;;;;;;5.54;80.65;102548.72;5259350;28;20025;-72
2023/03/04 00:42:29;;;;;;;17.33;4.13;;;;;;;5.70;80.83;102544.19;5256693;28;20031;-73
2023/03/04 00:45:00;;;;;;;16.47;4.30;;;;;;;5.73;80.08;102549.34;5268813;28;20035;-72
2023/03/04 00:47:31;;;;;;;13.47;4.67;;;;;;;5.79;80.34;102538.91;5256738;28;20106;-72
2023/03/04 00:50:03;;;;;;;20.27;4.20;;;;;;;5.67;81.79;102544.25;5258913;28;20112;-72
2023/03/04 00:52:34;;;;;;;18.33;4.00;;;;;;;5.87;80.62;102543.13;5256782;28;20021;-72
2023/03/04 00:55:07;;;;;;;21.73;4.23;;;;;;;5.83;80.69;102544.06;5255673;28;20036;-72
2023/03/04 00:57:38;;;;;;;25.40;4.73;;;;;;;5.81;79.23;102542.31;5256625;28;20021;-72
2023/03/04 01:00:10;;;;;;;17.40;3.73;;;;;;;5.88;79.80;102544.88;5250070;28;20051;-72
2023/03/04 01:02:41;;;;;;;19.10;4.70;;;;;;;5.87;79.72;102532.72;5257104;28;20077;-72
2023/03/04 01:05:13;;;;;;;16.70;3.17;;;;;;;5.98;79.92;102549.06;5254651;28;20040;-72
2023/03/04 01:07:44;;;;;;;22.77;4.03;;;;;;;5.81;80.63;102546.69;5257529;28;20033;-72
2023/03/04 01:10:16;;;;;;;23.70;4.57;;;;;;;5.84;81.08;102556.16;5239690;28;20504;-72
2023/03/04 01:12:47;;;;;;;17.77;3.70;;;;;;;5.90;80.95;102554.34;5257172;28;20036;-71
2023/03/04 01:15:18;;;;;;;23.87;4.40;;;;;;;5.84;80.73;102556.16;5267251;28;20036;-71
2023/03/04 01:17:50;;;;;;;17.67;5.03;;;;;;;5.84;79.89;102553.56;5273903;28;20426;-72
2023/03/04 01:20:21;;;;;;;34.27;5.87;;;;;;;5.66;81.19;102547.72;5274195;28;20498;-73
2023/03/04 01:22:53;;;;;;;24.13;4.93;;;;;;;5.83;80.42;102555.31;5255627;28;20855;-73
2023/03/04 01:25:24;;;;;;;21.50;5.13;;;;;;;5.71;80.01;102551.13;5272421;28;20032;-73
2023/03/04 01:27:55;;;;;;;17.30;4.63;;;;;;;5.84;80.20;102556.16;5270720;28;20025;-73
2023/03/04 01:30:27;;;;;;;17.07;3.50;;;;;;;5.62;80.00;102531.28;5262241;28;20033;-73
2023/03/04 01:32:58;;;;;;;20.37;3.97;;;;;;;5.72;78.67;102547.66;5273632;28;20661;-74
2023/03/04 01:35:29;;;;;;;13.47;3.60;;;;;;;5.77;79.29;102548.47;5277386;28;20031;-74
2023/03/04 01:38:00;;;;;;;18.77;3.87;;;;;;;5.65;79.98;102536.47;5277578;28;20035;-72
2023/03/04 01:40:32;;;;;;;22.23;4.43;;;;;;;5.77;79.13;102538.06;5278281;28;20506;-72
2023/03/04 01:43:04;;;;;;;16.90;3.43;;;;;;;5.81;78.74;102538.88;5289949;28;20125;-72
2023/03/04 01:45:35;;;;;;;15.23;3.90;;;;;;;5.65;80.49;102535.59;5276916;28;20392;-72
2023/03/04 01:48:08;;;;;;;21.43;3.40;;;;;;;5.74;79.95;102532.03;5277616;28;20024;-72
2023/03/04 01:50:40;;;;;;;15.40;3.43;;;;;;;5.75;79.80;102524.22;5276331;28;20322;-73
2023/03/04 01:53:20;;;;;;;19.60;3.80;;;;;;;5.75;79.94;102528.53;5263221;28;20024;-72
2023/03/04 01:55:55;;;;;;;18.00;3.43;;;;;;;5.52;80.87;102520.13;5260126;28;20467;-72
2023/03/04 01:58:29;;;;;;;19.17;2.93;;;;;;;5.66;80.43;102516.50;5277632;28;20024;-73
2023/03/04 02:01:00;;;;;;;14.38;3.70;;;;;;;5.65;81.61;102517.41;5267543;28;20041;-71
2023/03/04 02:03:32;;;;;;;17.50;2.77;;;;;;;5.74;80.23;102514.66;5272085;28;20039;-72
2023/03/04 02:06:04;;;;;;;19.77;4.70;;;;;;;5.54;81.95;102517.53;5277162;28;20063;-71
2023/03/04 02:08:36;;;;;;;19.20;4.40;;;;;;;5.67;81.84;102500.06;5277610;28;20048;-72
2023/03/04 02:11:08;;;;;;;19.63;3.13;;;;;;;5.74;81.53;102508.63;5276706;28;20028;-72
2023/03/04 02:13:41;;;;;;;15.53;3.20;;;;;;;5.63;81.62;102506.16;5269639;28;20353;-72
2023/03/04 02:16:12;;;;;;;17.10;4.07;;;;;;;5.51;81.78;102502.84;5259264;28;20484;-72
2023/03/04 02:18:43;;;;;;;23.23;4.33;;;;;;;5.70;81.23;102497.41;5255986;28;20066;-72
2023/03/04 02:21:18;;;;;;;17.10;3.80;;;;;;;5.73;82.09;102502.56;5255557;28;20032;-72
2023/03/04 02:24:26;;;;;;;18.88;4.30;;;;;;;5.77;81.84;102499.06;5242087;28;20071;-72
2023/03/04 02:26:57;;;;;;;17.67;2.60;;;;;;;5.61;80.53;102481.91;5275319;28;20025;-72
2023/03/04 02:29:29;;;;;;;18.70;3.57;;;;;;;5.66;80.88;102490.50;5255523;28;20083;-72
2023/03/04 02:32:00;;;;;;;17.20;4.03;;;;;;;5.59;81.27;102488.88;5259914;28;20016;-72
2023/03/04 02:34:34;;;;;;;10.13;2.40;;;;;;;5.64;80.64;102500.06;5272236;28;20025;-72
2023/03/04 02:37:05;;;;;;;20.30;4.13;;;;;;;5.53;81.93;102489.81;5267690;28;20028;-72
2023/03/04 02:39:45;;;;;;;13.90;3.03;;;;;;;5.64;82.28;102493.13;5276324;28;20626;-72
2023/03/04 02:42:17;;;;;;;14.53;3.47;;;;;;;5.56;81.84;102462.06;5276706;28;20407;-73
2023/03/04 02:44:49;;;;;;;22.97;3.77;;;;;;;5.41;82.05;102485.63;5274684;28;20033;-73
2023/03/04 02:47:20;;;;;;;20.30;3.03;;;;;;;5.53;82.13;102480.25;5281330;28;20058;-73
2023/03/04 02:49:51;;;;;;;15.53;3.00;;;;;;;5.54;81.54;102479.41;5253998;28;20040;-73
2023/03/04 02:52:25;;;;;;;15.07;2.70;;;;;;;5.67;81.45;102481.84;5256082;28;20036;-73
2023/03/04 02:54:56;;;;;;;13.17;3.53;;;;;;;5.53;82.07;102472.47;5272923;28;20098;-73
2023/03/04 02:57:27;;;;;;;17.60;3.47;;;;;;;5.60;82.30;102477.59;5276425;28;20487;-73
2023/03/04 03:00:00;;;;;;;13.53;3.27;;;;;;;5.60;81.73;102475.00;5261229;28;20037;-73
2023/03/04 03:02:31;;;;;;;16.10;3.20;;;;;;;5.47;81.86;102464.75;5276672;28;20036;-73
2023/03/04 03:05:03;;;;;;;16.97;3.70;;;;;;;5.40;81.89;102479.56;5276423;28;20044;-73
2023/03/04 03:07:35;;;;;;;17.97;3.33;;;;;;;5.50;82.89;102464.72;5258141;28;20456;-73
2023/03/04 03:10:08;;;;;;;19.37;4.50;;;;;;;5.63;82.51;102469.75;5275928;28;20570;-73
2023/03/04 03:12:39;;;;;;;17.90;3.73;;;;;;;5.65;83.27;102478.41;5276201;28;20023;-72
2023/03/04 03:15:10;;;;;;;14.93;3.77;;;;;;;5.51;85.13;102465.59;5275140;28;20734;-72
2023/03/04 03:17:42;;;;;;;15.90;2.77;;;;;;;5.43;84.11;102469.13;5272408;28;20785;-73
2023/03/04 03:20:15;;;;;;;13.00;3.13;;;;;;;5.71;83.13;102472.28;5254818;28;20079;-73
2023/03/04 03:22:47;;;;;;;17.97;2.90;;;;;;;5.53;85.54;102472.47;5254915;28;20112;-71
2023/03/04 03:25:18;;;;;;;12.33;2.80;;;;;;;5.72;82.86;102471.38;5254965;28;20123;-72
2023/03/04 03:27:51;;;;;;;16.57;3.13;;;;;;;5.56;84.24;102467.25;5255018;28;20111;-72
2023/03/04 03:30:23;;;;;;;17.77;3.43;;;;;;;5.42;83.47;102430.16;5254136;28;20024;-73
2023/03/04 03:32:54;;;;;;;17.73;3.33;;;;;;;5.68;83.14;102457.56;5266597;28;20020;-73
2023/03/04 03:35:26;;;;;;;13.40;2.67;;;;;;;5.61;84.65;102458.53;5251132;28;20021;-73
2023/03/04 03:37:57;;;;;;;19.47;3.17;;;;;;;5.61;83.55;102458.53;5254550;28;20372;-73
2023/03/04 03:40:28;;;;;;;17.10;3.60;;;;;;;5.69;83.43;102454.06;5254775;28;20021;-73
2023/03/04 03:42:59;;;;;;;13.57;3.20;;;;;;;5.60;83.30;102457.69;5254948;28;20036;-73
2023/03/04 03:45:31;;;;;;;12.73;3.07;;;;;;;5.51;83.11;102460.38;5260334;28;20495;-73
2023/03/04 03:48:03;;;;;;;13.57;3.83;;;;;;;5.49;82.98;102451.75;5254837;28;20132;-73
2023/03/04 03:50:34;;;;;;;10.40;2.73;;;;;;;5.59;83.43;102462.88;5254589;28;20028;-73
2023/03/04 03:53:05;;;;;;;14.90;3.23;;;;;;;5.54;83.54;102456.00;5253937;28;20036;-73
2023/03/04 03:55:37;;;;;;;13.53;2.50;;;;;;;5.62;83.59;102452.47;5254206;28;20418;-73
2023/03/04 03:58:09;;;;;;;15.47;3.07;;;;;;;5.40;84.45;102457.91;5267150;28;20103;-73
2023/03/04 04:00:40;;;;;;;16.07;3.30;;;;;;;5.32;85.55;102455.41;5252979;28;20167;-73
2023/03/04 04:03:14;;;;;;;15.77;2.80;;;;;;;5.54;84.61;102458.59;5248934;28;20028;-73
2023/03/04 04:05:46;;;;;;;14.23;3.38;;;;;;;5.52;84.65;102442.16;5274497;28;20056;-73
2023/03/04 04:08:17;;;;;;;13.20;3.97;;;;;;;5.64;83.49;102456.75;5274795;28;20070;-73
2023/03/04 04:10:49;;;;;;;12.70;3.20;;;;;;;5.55;83.68;102451.69;5275060;28;20644;-73
2023/03/04 04:13:20;;;;;;;23.47;4.07;;;;;;;5.55;83.32;102454.28;5274936;28;20016;-73
2023/03/04 04:15:52;;;;;;;23.17;3.63;;;;;;;5.37;83.06;102452.75;5255720;28;20032;-73
2023/03/04 04:18:24;;;;;;;17.97;3.57;;;;;;;5.39;83.56;102461.41;5274790;28;20372;-73
2023/03/04 04:20:56;;;;;;;16.27;3.10;;;;;;;5.33;84.47;102457.13;5251930;28;20789;-73
2023/03/04 04:23:27;;;;;;;12.23;3.27;;;;;;;5.27;83.40;102452.84;5253629;28;20031;-71
2023/03/04 04:25:58;;;;;;;14.10;2.60;;;;;;;5.42;83.00;102461.34;5235958;28;20031;-72
2023/03/04 04:28:30;;;;;;;11.73;2.30;;;;;;;5.45;83.72;102466.50;5252984;28;20381;-72
2023/03/04 04:31:01;;;;;;;11.07;2.33;;;;;;;5.47;82.07;102464.75;5252834;28;20032;-71
2023/03/04 04:33:32;;;;;;;11.50;2.40;;;;;;;5.38;81.61;102455.31;5253776;28;20108;-72
2023/03/04 04:36:04;;;;;;;17.63;3.50;;;;;;;5.39;81.56;102440.59;5264921;28;20028;-72
2023/03/04 04:38:36;;;;;;;20.13;3.17;;;;;;;5.36;81.44;102461.44;5231278;28;20100;-72
2023/03/04 04:41:21;;;;;;;16.30;2.77;;;;;;;5.53;81.83;102464.66;5253497;28;20025;-72
2023/03/04 04:43:52;;;;;;;15.88;2.60;;;;;;;5.52;82.40;102462.97;5264334;28;20060;-72
2023/03/04 04:46:25;;;;;;;14.50;2.50;;;;;;;5.52;82.23;102462.97;5246818;28;20465;-72
2023/03/04 04:48:57;;;;;;;17.00;2.67;;;;;;;5.56;81.10;102463.78;5253550;28;20099;-72
2023/03/04 04:51:28;;;;;;;14.10;2.83;;;;;;;5.22;82.44;102469.38;5253389;28;20108;-72
2023/03/04 04:54:01;;;;;;;17.37;3.67;;;;;;;5.21;83.03;102455.53;5262793;28;20024;-72
2023/03/04 04:56:33;;;;;;;16.63;2.97;;;;;;;5.17;82.80;102470.28;5249217;28;20029;-72
2023/03/04 04:59:06;;;;;;;17.50;2.83;;;;;;;5.33;81.85;102462.31;5251313;28;20051;-72
2023/03/04 05:01:37;;;;;;;10.63;2.43;;;;;;;5.47;82.02;102469.94;5251228;28;20036;-72
2023/03/04 05:04:09;;;;;;;12.43;2.73;;;;;;;5.37;83.79;102463.16;5251614;28;20039;-72
2023/03/04 05:06:40;;;;;;;17.73;3.13;;;;;;;5.14;83.40;102472.06;5256218;28;20078;-72
2023/03/04 05:09:12;;;;;;;14.33;2.70;;;;;;;5.29;83.54;102458.88;5255363;28;20530;-72
2023/03/04 05:11:43;;;;;;;14.53;2.73;;;;;;;5.28;83.01;102470.16;5257721;28;20116;-72
2023/03/04 05:14:15;;;;;;;17.17;3.20;;;;;;;5.35;82.18;102470.97;5256831;28;20025;-72
2023/03/04 05:16:46;;;;;;;9.17;2.60;;;;;;;5.40;82.52;102468.31;5239629;28;20047;-72
2023/03/04 05:19:19;;;;;;;11.60;2.27;;;;;;;5.45;82.87;102461.31;5269086;28;20028;-72
2023/03/04 05:21:50;;;;;;;13.27;3.10;;;;;;;5.43;82.73;102457.88;5256649;28;20424;-72
2023/03/04 05:24:21;;;;;;;16.27;3.27;;;;;;;5.40;82.09;102463.09;5257136;28;20033;-72
2023/03/04 05:26:52;;;;;;;21.50;3.40;;;;;;;5.22;82.07;102456.41;5258200;28;20029;-72
2023/03/04 05:29:24;;;;;;;10.97;2.70;;;;;;;5.29;81.95;102466.69;5265268;28;20496;-72
2023/03/04 05:31:55;;;;;;;21.60;3.20;;;;;;;5.30;81.79;102457.16;5255938;28;20095;-72
2023/03/04 05:34:26;;;;;;;12.90;3.20;;;;;;;5.26;82.73;102456.34;5255451;28;20508;-73
2023/03/04 05:36:58;;;;;;;13.57;3.10;;;;;;;5.43;82.32;102470.84;5255556;28;20025;-73
2023/03/04 05:39:29;;;;;;;11.17;2.83;;;;;;;5.30;82.24;102470.16;5267631;28;20107;-73
2023/03/04 05:42:00;;;;;;;13.73;2.37;;;;;;;5.37;81.61;102469.22;5255354;28;20025;-72
2023/03/04 05:44:32;;;;;;;16.57;3.00;;;;;;;5.37;81.75;102469.22;5256899;28;20028;-72
2023/03/04 05:47:03;;;;;;;11.10;2.80;;;;;;;5.28;81.66;102470.16;5270151;28;20506;-72
2023/03/04 05:49:34;;;;;;;19.77;3.93;;;;;;;5.35;81.67;102464.91;5272538;28;20571;-72
2023/03/04 05:52:06;;;;;;;7.77;2.10;;;;;;;5.36;81.95;102457.06;5260317;28;20024;-72
2023/03/04 05:54:37;;;;;;;16.03;3.00;;;;;;;5.37;81.86;102474.41;5255708;28;20483;-72
2023/03/04 05:57:08;;;;;;;11.33;2.97;;;;;;;5.27;82.76;102473.63;5263194;28;20093;-72
2023/03/04 05:59:40;;;;;;;10.60;2.30;;;;;;;5.32;82.92;102465.81;5260356;28;20091;-72
2023/03/04 06:02:11;;;;;;;11.57;3.00;;;;;;;5.39;82.55;102469.19;5255223;28;20029;-72
2023/03/04 06:04:42;;;;;;;11.60;2.10;;;;;;;5.43;82.50;102465.66;5254497;28;20142;-72
2023/03/04 06:07:15;;;;;;;18.93;3.43;;;;;;;5.42;82.88;102477.81;5255045;28;20029;-73
2023/03/04 06:09:46;;;;;;;11.73;2.10;;;;;;;5.33;83.43;102483.09;5255384;28;20053;-73
2023/03/04 06:12:17;;;;;;;12.37;2.07;;;;;;;5.36;83.98;102474.44;5272480;28;20044;-73
2023/03/04 06:14:49;;;;;;;7.63;1.80;;;;;;;5.41;83.64;102483.03;5268973;28;20503;-73
2023/03/04 06:17:20;;;;;;;13.43;2.30;;;;;;;5.31;83.51;102469.25;5242728;28;20159;-73
2023/03/04 06:19:51;;;;;;;16.60;2.23;;;;;;;5.27;84.23;102476.22;5268874;28;20028;-72
2023/03/04 06:22:23;;;;;;;9.83;2.57;;;;;;;5.17;83.74;102472.00;5268357;28;20027;-72
2023/03/04 06:24:54;;;;;;;15.13;2.30;;;;;;;5.42;83.94;102476.94;5262941;28;20392;-72
2023/03/04 06:27:26;;;;;;;13.90;2.83;;;;;;;5.31;84.57;102480.53;5257697;28;20025;-72
2023/03/04 06:29:57;;;;;;;7.27;1.90;;;;;;;5.28;85.08;102490.97;5253327;28;20025;-72
2023/03/04 06:32:29;;;;;;;8.90;2.00;;;;;;;5.38;84.96;102485.63;5253707;28;20104;-72
2023/03/04 06:35:00;;;;;;;8.97;2.40;;;;;;;5.22;86.73;102492.75;5254404;28;20107;-72
2023/03/04 06:37:31;;;;;;;12.57;2.47;;;;;;;5.28;87.29;102493.56;5254215;28;20067;-73
2023/03/04 06:40:03;;;;;;;12.37;2.37;;;;;;;5.18;87.85;102482.38;5254555;28;20043;-72
2023/03/04 06:42:35;;;;;;;13.73;2.70;;;;;;;5.04;89.21;102482.56;5254058;28;20119;-72
2023/03/04 06:45:07;;;;;;;10.70;2.10;;;;;;;5.42;88.40;102500.34;5253626;28;20032;-72
2023/03/04 06:47:38;;;;;;;10.80;2.10;;;;;;;5.28;88.73;102498.75;5255684;28;20032;-73
2023/03/04 06:50:11;;;;;;;4.90;1.40;;;;;;;5.28;88.97;102501.34;5255898;28;20334;-73
2023/03/04 06:52:42;;;;;;;12.57;2.67;;;;;;;5.37;89.89;102500.38;5255851;28;20037;-73
2023/03/04 06:55:14;;;;;;;11.27;1.97;;;;;;;5.19;90.16;102499.72;5263147;28;20031;-73
2023/03/04 06:57:45;;;;;;;17.97;2.87;;;;;;;5.20;90.18;102490.19;5255062;28;20103;-73
2023/03/04 07:00:17;;;;;;;10.57;2.33;;;;;;;5.26;91.14;102503.09;5254269;28;20080;-73
2023/03/04 07:02:48;;;;;;;11.27;1.80;;;;;;;5.28;91.59;102501.34;5255179;28;20025;-73
2023/03/04 07:05:19;;;;;;;12.43;2.70;;;;;;;5.24;91.81;102511.78;5263743;28;20119;-73
2023/03/04 07:07:51;;;;;;;12.53;2.17;;;;;;;5.18;91.82;102504.91;5255293;28;20213;-73
2023/03/04 07:10:22;;;;;;;11.13;3.03;;;;;;;5.38;91.96;102511.63;5257215;28;20025;-73
2023/03/04 07:12:53;;;;;;;11.77;2.30;;;;;;;5.34;92.70;102510.81;5255478;28;20024;-73
2023/03/04 07:15:25;;;;;;;8.17;1.83;;;;;;;5.39;93.22;102500.38;5249569;28;20021;-73
2023/03/04 07:17:56;;;;;;;9.00;2.10;;;;;;;5.52;93.65;102512.34;5255848;28;20094;-73
2023/03/04 07:20:27;;;;;;;8.40;2.07;;;;;;;5.25;97.38;102506.59;5237163;28;20488;-73
2023/03/04 07:22:59;;;;;;;9.03;1.97;;;;;;;5.35;96.40;102496.94;5265521;28;20044;-73
2023/03/04 07:25:30;;;;;;;9.80;1.87;;;;;;;5.31;97.54;102516.91;5250589;28;20481;-73
2023/03/04 07:28:01;;;;;;;12.50;3.83;;;;;;;5.51;96.04;102518.44;5254925;28;20025;-73
2023/03/04 07:30:33;;;;;;;12.17;2.23;;;;;;;5.28;96.41;102516.06;5228635;28;20025;-73
2023/03/04 07:33:04;;;;;;;11.70;2.70;;;;;;;5.20;96.34;102519.59;5268617;28;20340;-73
2023/03/04 07:35:35;;;;;;;10.37;2.93;;;;;;;5.45;94.86;102523.69;5266609;28;20070;-73
2023/03/04 07:38:07;;;;;;;8.73;1.83;;;;;;;5.44;95.54;102521.97;5265478;28;20099;-73
2023/03/04 07:40:38;;;;;;;7.90;2.40;;;;;;;5.17;97.19;102531.75;5262202;28;20383;-73
2023/03/04 07:43:11;;;;;;;10.20;2.10;;;;;;;5.15;97.36;102521.38;5265338;28;20020;-73
2023/03/04 07:45:42;;;;;;;10.43;2.53;;;;;;;5.38;95.94;102532.41;5260281;28;20033;-73
2023/03/04 07:48:13;;;;;;;10.00;2.50;;;;;;;5.54;95.09;102533.97;5258800;28;20024;-74
2023/03/04 07:50:46;;;;;;;9.97;2.20;;;;;;;5.50;97.00;102537.47;5261436;28;20082;-73
2023/03/04 07:53:18;;;;;;;8.23;2.47;;;;;;;5.60;95.09;102543.47;5258595;28;20467;-73
2023/03/04 07:55:49;;;;;;;12.63;3.07;;;;;;;5.52;96.06;102545.25;5257121;28;20031;-73
2023/03/04 07:58:20;;;;;;;17.33;3.17;;;;;;;5.45;96.96;102545.34;5258467;28;20149;-74
2023/03/04 08:00:52;;;;;;;16.67;3.37;;;;;;;5.54;95.59;102533.13;5255743;28;20048;-73
2023/03/04 08:03:24;;;;;;;11.17;2.63;;;;;;;5.40;97.57;102548.84;5264994;28;20395;-74
2023/03/04 08:05:55;;;;;;;9.20;2.23;;;;;;;5.45;96.86;102537.53;5260952;28;20031;-73
2023/03/04 08:08:26;;;;;;;10.57;3.07;;;;;;;5.54;96.26;102539.19;5247127;28;20559;-74
2023/03/04 08:10:58;;;;;;;13.20;2.87;;;;;;;5.53;98.55;102553.03;5259763;28;20035;-73
2023/03/04 08:13:29;;;;;;;16.47;3.70;;;;;;;5.44;98.50;102534.97;5242752;28;20032;-74
2023/03/04 08:16:01;;;;;;;19.50;3.83;;;;;;;5.46;98.42;102541.00;5259322;28;20345;-72
2023/03/04 08:18:32;;;;;;;10.03;2.63;;;;;;;5.57;97.08;102541.75;5254847;28;20032;-72
2023/03/04 08:21:08;;;;;;;10.23;3.43;;;;;;;5.71;96.38;102551.13;5263105;28;20103;-73
2023/03/04 08:23:43;;;;;;;15.03;3.40;;;;;;;5.73;97.20;102556.28;5268655;28;20028;-72
2023/03/04 08:26:19;;;;;;;13.13;3.60;;;;;;;5.52;100.00;102551.31;5259094;28;20124;-73
2023/03/04 08:28:51;;;;;;;10.43;3.23;;;;;;;5.68;100.00;102552.03;5265339;28;20028;-72
2023/03/04 08:31:22;;;;;;;6.10;2.10;;;;;;;5.44;100.00;102542.75;5261183;28;20036;-73
2023/03/04 08:33:54;;;;;;;11.53;2.07;;;;;;;5.65;100.00;102554.66;5272965;28;20027;-73
2023/03/04 08:36:25;;;;;;;10.00;2.53;;;;;;;5.60;100.00;102550.38;5252539;28;20111;-73
2023/03/04 08:38:56;;;;;;;16.90;2.47;;;;;;;5.70;99.56;102549.41;5274501;28;20468;-73
2023/03/04 08:41:28;;;;;;;9.70;2.57;;;;;;;5.59;99.64;102525.25;5270835;28;20020;-73
2023/03/04 08:43:59;;;;;;;8.83;2.33;;;;;;;5.84;100.00;102554.44;5271632;28;20081;-73
2023/03/04 08:46:31;;;;;;;8.70;2.53;;;;;;;5.89;100.00;102554.38;5271335;28;20020;-73
2023/03/04 08:49:03;;;;;;;10.50;2.73;;;;;;;5.81;100.00;102557.91;5271898;28;20024;-73
2023/03/04 08:51:34;;;;;;;11.17;2.63;;;;;;;6.03;98.94;102547.25;5270662;28;20024;-71
2023/03/04 08:54:06;;;;;;;9.57;2.50;;;;;;;6.13;98.12;102544.56;5272411;28;20028;-73
2023/03/04 08:56:37;;;;;;;14.80;3.03;;;;;;;6.28;97.82;102549.53;5260779;28;20017;-73
2023/03/04 08:59:08;;;;;;;12.57;3.20;;;;;;;6.35;98.09;102552.06;5263588;28;20052;-73
2023/03/04 09:01:40;;;;;;;11.93;3.33;;;;;;;6.38;97.90;102544.22;5265296;28;21704;-73
2023/03/04 09:04:11;;;;;;;13.00;2.83;;;;;;;6.47;96.72;102541.50;5242342;28;20025;-74
2023/03/04 09:06:42;;;;;;;10.07;2.30;;;;;;;6.63;94.15;102544.69;5260211;28;20465;-74
2023/03/04 09:09:14;;;;;;;11.47;3.47;;;;;;;6.76;94.15;102547.97;5265234;28;20029;-74
2023/03/04 09:11:45;;;;;;;13.30;2.40;;;;;;;6.88;93.02;102546.91;5267665;28;20021;-74
2023/03/04 09:14:16;;;;;;;10.70;2.37;;;;;;;6.87;90.83;102537.41;5252597;28;20625;-74
2023/03/04 09:16:47;;;;;;;7.90;2.23;;;;;;;6.82;90.88;102540.94;5253908;28;20107;-74
2023/03/04 09:19:19;;;;;;;9.83;2.00;;;;;;;6.80;92.41;102540.13;5253705;28;20107;-74
2023/03/04 09:21:50;;;;;;;7.80;3.50;;;;;;;6.92;90.58;102537.31;5267268;28;20479;-73
2023/03/04 09:24:21;;;;;;;11.80;1.97;;;;;;;6.98;89.44;102525.94;5272958;28;20433;-73
2023/03/04 09:26:53;;;;;;;10.07;2.37;;;;;;;7.02;88.65;102525.84;5259118;28;20083;-74
2023/03/04 09:29:25;;;;;;;8.40;1.80;;;;;;;7.19;89.87;102522.06;5236780;28;20071;-74
2023/03/04 09:31:56;;;;;;;9.67;2.47;;;;;;;7.14;89.91;102524.75;5262707;28;20124;-74
2023/03/04 09:34:27;;;;;;;12.13;2.77;;;;;;;7.16;88.01;102522.13;5234160;28;20499;-74
2023/03/04 09:36:59;;;;;;;5.30;1.93;;;;;;;7.08;87.73;102497.97;5261577;28;20028;-74
2023/03/04 09:39:31;;;;;;;14.57;3.07;;;;;;;7.23;88.68;102515.91;5251140;28;20036;-74
2023/03/04 09:42:04;;;;;;;7.20;2.00;;;;;;;7.36;87.42;102511.34;5261615;28;20031;-74
2023/03/04 09:44:39;;;;;;;7.85;1.90;;;;;;;7.52;86.18;102521.47;5256787;28;20036;-74
2023/03/04 09:47:14;;;;;;;9.87;2.07;;;;;;;7.56;87.07;102506.59;5262060;28;20028;-73
2023/03/04 09:50:08;;;;;;;7.17;2.33;;;;;;;7.73;87.45;102520.16;5259880;28;20028;-73
2023/03/04 09:53:01;;;;;;;6.70;1.53;;;;;;;7.76;86.62;102516.63;5273822;28;20032;-73
2023/03/04 09:55:41;;;;;;;5.83;1.63;;;;;;;7.66;85.13;102521.19;5254510;28;20487;-73
2023/03/04 09:58:32;;;;;;;7.07;1.80;;;;;;;7.67;86.14;102522.91;5270420;28;20024;-73
2023/03/04 10:01:25;;;;;;;4.83;1.50;;;;;;;7.59;85.24;102527.41;5256740;28;20056;-73
2023/03/04 10:04:09;;;;;;;5.70;1.50;;;;;;;7.50;84.89;102524.06;5257052;28;20481;-73
2023/03/04 10:06:41;;;;;;;4.20;1.10;;;;;;;7.49;85.29;102527.59;5240256;28;20037;-72
2023/03/04 10:09:21;;;;;;;5.07;1.27;;;;;;;7.49;85.83;102516.28;5268117;28;20167;-72
2023/03/04 10:12:11;;;;;;;5.07;1.30;;;;;;;7.49;87.14;102513.69;5259036;28;20036;-73
2023/03/04 10:14:53;;;;;;;4.77;1.80;;;;;;;7.54;86.23;102509.22;5264425;28;20036;-73
2023/03/04 10:17:41;;;;;;;11.47;1.77;;;;;;;7.50;86.30;102518.03;5262311;28;20590;-73
2023/03/04 10:20:26;;;;;;;3.13;1.10;;;;;;;7.60;85.91;102519.56;5262730;28;20035;-73
2023/03/04 10:23:01;;;;;;;5.82;2.10;;;;;;;7.52;84.38;102490.19;5256902;28;20029;-74
2023/03/04 10:25:34;;;;;;;5.60;1.63;;;;;;;7.89;83.44;102483.31;5271097;28;20029;-74
2023/03/04 10:28:16;;;;;;;4.43;1.77;;;;;;;8.41;82.74;102516.94;5262906;28;20020;-73
2023/03/04 10:30:57;;;;;;;7.00;1.93;;;;;;;8.73;81.63;102513.63;5285633;28;20035;-74
2023/03/04 10:33:34;;;;;;;4.50;1.27;;;;;;;8.75;79.41;102483.06;5271121;28;20021;-73
2023/03/04 10:36:24;;;;;;;4.63;1.73;;;;;;;8.90;77.45;102507.97;5283205;28;20097;-73
2023/03/04 10:39:09;;;;;;;9.83;1.60;;;;;;;8.78;77.79;102499.53;5273259;28;20017;-74
2023/03/04 10:41:44;;;;;;;2.93;1.50;;;;;;;8.32;76.97;102504.09;5272885;28;20087;-73
2023/03/04 10:44:17;;;;;;;6.30;1.60;;;;;;;8.43;77.54;102496.03;5266044;28;20039;-72
2023/03/04 10:46:49;;;;;;;5.47;1.77;;;;;;;8.38;78.05;102482.22;5267916;28;20021;-72
2023/03/04 10:49:21;;;;;;;5.23;1.90;;;;;;;8.27;78.48;102490.31;5259814;28;20032;-73
2023/03/04 10:51:52;;;;;;;6.67;1.70;;;;;;;8.27;78.54;102501.63;5269675;28;20077;-72
2023/03/04 10:54:35;;;;;;;8.27;1.93;;;;;;;8.28;79.77;102497.22;5261240;28;20033;-73
2023/03/04 10:57:46;;;;;;;6.57;1.40;;;;;;;8.07;83.20;102502.06;5256374;28;20063;-73
2023/03/04 11:00:17;;;;;;;5.67;1.63;;;;;;;7.92;82.12;102498.91;5240026;28;20041;-72
2023/03/04 11:02:49;;;;;;;7.30;1.53;;;;;;;7.92;80.64;102483.25;5271554;28;20597;-74
2023/03/04 11:05:23;;;;;;;6.10;1.63;;;;;;;7.80;81.66;102502.63;5271297;28;20115;-72
2023/03/04 11:08:00;;;;;;;;;;;;;;;8.12;82.04;102494.97;5258359;28;20143;-73
2023/03/04 11:10:39;;;;;;;9.10;1.87;;;;;;;8.03;81.26;102490.00;5264302;28;19913;-73
2023/03/04 11:13:24;;;;;;;9.77;1.70;;;;;;;7.78;80.54;102454.88;5258397;28;20317;-73
2023/03/04 11:15:59;;;;;;;5.10;1.40;;;;;;;7.85;83.55;102482.50;5265368;28;20048;-74
2023/03/04 11:18:49;;;;;;;7.00;1.70;;;;;;;7.97;81.83;102484.00;5250467;28;20507;-73
2023/03/04 11:21:27;;;;;;;8.87;2.17;;;;;;;7.66;84.45;102476.84;5259580;28;20532;-72
2023/03/04 11:24:02;;;;;;;5.63;1.30;;;;;;;7.76;85.08;102480.13;5262159;28;20099;-72
2023/03/04 11:26:51;;;;;;;9.63;2.53;;;;;;;7.77;85.13;102473.16;5240004;28;20032;-72
2023/03/04 11:29:42;;;;;;;5.90;2.23;;;;;;;7.78;85.59;102474.88;5243518;28;20109;-73
2023/03/04 11:32:21;;;;;;;7.93;2.13;;;;;;;7.78;86.26;102474.88;5269268;28;20521;-74
2023/03/04 11:34:58;;;;;;;6.17;2.07;;;;;;;7.71;86.89;102459.38;5252368;28;20120;-72
2023/03/04 11:37:41;;;;;;;4.63;1.97;;;;;;;7.75;87.81;102474.03;5265004;28;20539;-72
2023/03/04 11:40:25;;;;;;;6.87;2.47;;;;;;;7.86;87.58;102468.59;5264478;28;20067;-73
2023/03/04 11:43:03;;;;;;;3.57;1.80;;;;;;;7.87;87.98;102464.25;5266479;28;20127;-74
2023/03/04 11:46:12;;;;;;;10.80;2.23;;;;;;;7.68;91.47;102459.41;5268374;28;20028;-74
2023/03/04 11:49:32;;;;;;;3.73;1.50;;;;;;;7.60;91.03;102435.25;5270272;28;20028;-74
2023/03/04 11:52:34;;;;;;;3.20;1.67;;;;;;;7.69;90.52;102432.44;5264204;28;20520;-74
2023/03/04 11:55:18;;;;;;;3.17;1.13;;;;;;;7.78;92.67;102448.78;5258885;28;20052;-74
2023/03/04 11:57:55;;;;;;;3.23;1.70;;;;;;;7.78;92.17;102443.56;5272467;28;20051;-74